sensor_id;sensor_type;location;lat;lon;timestamp;P1;durP1;ratioP1;P2;durP2;ratioP2
64653;SDS011;51065;48.884;12.598;2024-01-27T00:01:40;4.25;;;1.55;;
64653;SDS011;51065;48.884;12.598;2024-01-27T00:04:06;4.63;;;1.45;;
64653;SDS011;51065;48.884;12.598;2024-01-27T00:06:31;3.88;;;1.60;;
64653;SDS011;51065;48.884;12.598;2024-01-27T00:08:57;2.33;;;1.17;;
64653;SDS011;51065;48.884;12.598;2024-01-27T00:11:22;2.92;;;1.48;;
64653;SDS011;51065;48.884;12.598;2024-01-27T00:13:51;5.25;;;2.03;;
64653;SDS011;51065;48.884;12.598;2024-01-27T00:16:17;4.78;;;1.42;;
64653;SDS011;51065;48.884;12.598;2024-01-27T00:18:42;3.30;;;1.90;;
64653;SDS011;51065;48.884;12.598;2024-01-27T00:21:08;2.67;;;1.30;;
64653;SDS011;51065;48.884;12.598;2024-01-27T00:23:34;2.83;;;1.30;;
64653;SDS011;51065;48.884;12.598;2024-01-27T00:26:03;4.70;;;1.63;;
64653;SDS011;51065;48.884;12.598;2024-01-27T00:28:29;6.95;;;1.90;;
64653;SDS011;51065;48.884;12.598;2024-01-27T00:30:54;8.77;;;2.58;;
64653;SDS011;51065;48.884;12.598;2024-01-27T00:33:21;6.90;;;1.98;;
64653;SDS011;51065;48.884;12.598;2024-01-27T00:35:47;4.57;;;1.60;;
64653;SDS011;51065;48.884;12.598;2024-01-27T00:38:12;4.32;;;1.23;;
64653;SDS011;51065;48.884;12.598;2024-01-27T00:40:38;2.78;;;1.42;;
64653;SDS011;51065;48.884;12.598;2024-01-27T00:43:04;5.70;;;1.58;;
64653;SDS011;51065;48.884;12.598;2024-01-27T00:45:30;2.63;;;1.55;;
64653;SDS011;51065;48.884;12.598;2024-01-27T00:47:56;2.33;;;1.10;;
64653;SDS011;51065;48.884;12.598;2024-01-27T00:50:22;2.17;;;1.40;;
64653;SDS011;51065;48.884;12.598;2024-01-27T00:52:47;8.13;;;1.50;;
64653;SDS011;51065;48.884;12.598;2024-01-27T00:55:13;2.80;;;1.40;;
64653;SDS011;51065;48.884;12.598;2024-01-27T00:57:39;5.95;;;1.38;;
64653;SDS011;51065;48.884;12.598;2024-01-27T01:00:06;3.70;;;1.33;;
64653;SDS011;51065;48.884;12.598;2024-01-27T01:02:32;2.80;;;1.10;;
64653;SDS011;51065;48.884;12.598;2024-01-27T01:04:58;2.88;;;1.40;;
64653;SDS011;51065;48.884;12.598;2024-01-27T01:07:24;3.53;;;1.35;;
64653;SDS011;51065;48.884;12.598;2024-01-27T01:09:50;2.90;;;1.10;;
64653;SDS011;51065;48.884;12.598;2024-01-27T01:12:15;5.38;;;1.63;;
64653;SDS011;51065;48.884;12.598;2024-01-27T01:14:41;5.40;;;1.52;;
64653;SDS011;51065;48.884;12.598;2024-01-27T01:17:08;5.43;;;1.88;;
64653;SDS011;51065;48.884;12.598;2024-01-27T01:19:34;2.88;;;1.40;;
64653;SDS011;51065;48.884;12.598;2024-01-27T01:22:01;2.17;;;1.35;;
64653;SDS011;51065;48.884;12.598;2024-01-27T01:24:26;7.82;;;1.90;;
64653;SDS011;51065;48.884;12.598;2024-01-27T01:26:52;3.65;;;1.48;;
64653;SDS011;51065;48.884;12.598;2024-01-27T01:29:17;4.82;;;1.70;;
64653;SDS011;51065;48.884;12.598;2024-01-27T01:31:43;2.67;;;1.30;;
64653;SDS011;51065;48.884;12.598;2024-01-27T01:34:08;5.05;;;1.90;;
64653;SDS011;51065;48.884;12.598;2024-01-27T01:36:34;4.60;;;1.70;;
64653;SDS011;51065;48.884;12.598;2024-01-27T01:39:00;2.60;;;1.55;;
64653;SDS011;51065;48.884;12.598;2024-01-27T01:41:26;3.50;;;1.20;;
64653;SDS011;51065;48.884;12.598;2024-01-27T01:43:51;3.90;;;1.20;;
64653;SDS011;51065;48.884;12.598;2024-01-27T01:46:17;6.95;;;1.80;;
64653;SDS011;51065;48.884;12.598;2024-01-27T01:48:43;3.83;;;1.60;;
64653;SDS011;51065;48.884;12.598;2024-01-27T01:51:09;3.63;;;1.60;;
64653;SDS011;51065;48.884;12.598;2024-01-27T01:53:36;1.67;;;1.15;;
64653;SDS011;51065;48.884;12.598;2024-01-27T01:56:01;4.15;;;1.63;;
64653;SDS011;51065;48.884;12.598;2024-01-27T01:58:34;5.75;;;1.73;;
64653;SDS011;51065;48.884;12.598;2024-01-27T02:01:00;4.93;;;1.70;;
64653;SDS011;51065;48.884;12.598;2024-01-27T02:03:26;4.18;;;1.45;;
64653;SDS011;51065;48.884;12.598;2024-01-27T02:05:52;4.07;;;1.80;;
64653;SDS011;51065;48.884;12.598;2024-01-27T02:08:17;3.85;;;1.98;;
64653;SDS011;51065;48.884;12.598;2024-01-27T02:10:43;7.85;;;1.85;;
64653;SDS011;51065;48.884;12.598;2024-01-27T02:13:16;4.55;;;1.33;;
64653;SDS011;51065;48.884;12.598;2024-01-27T02:15:45;3.90;;;1.30;;
64653;SDS011;51065;48.884;12.598;2024-01-27T02:18:11;2.38;;;1.33;;
64653;SDS011;51065;48.884;12.598;2024-01-27T02:20:37;2.65;;;1.10;;
64653;SDS011;51065;48.884;12.598;2024-01-27T02:23:03;4.93;;;1.30;;
64653;SDS011;51065;48.884;12.598;2024-01-27T02:25:30;3.85;;;1.50;;
64653;SDS011;51065;48.884;12.598;2024-01-27T02:27:56;3.03;;;1.00;;
64653;SDS011;51065;48.884;12.598;2024-01-27T02:30:22;4.13;;;1.50;;
64653;SDS011;51065;48.884;12.598;2024-01-27T02:32:47;3.70;;;1.70;;
64653;SDS011;51065;48.884;12.598;2024-01-27T02:35:13;3.38;;;1.65;;
64653;SDS011;51065;48.884;12.598;2024-01-27T02:37:39;6.05;;;1.90;;
64653;SDS011;51065;48.884;12.598;2024-01-27T02:40:06;4.57;;;1.50;;
64653;SDS011;51065;48.884;12.598;2024-01-27T02:42:32;3.55;;;1.77;;
64653;SDS011;51065;48.884;12.598;2024-01-27T02:44:58;2.35;;;1.42;;
64653;SDS011;51065;48.884;12.598;2024-01-27T02:47:24;4.25;;;1.33;;
64653;SDS011;51065;48.884;12.598;2024-01-27T02:49:49;4.97;;;1.55;;
64653;SDS011;51065;48.884;12.598;2024-01-27T02:52:15;3.47;;;1.23;;
64653;SDS011;51065;48.884;12.598;2024-01-27T02:54:40;5.63;;;1.75;;
64653;SDS011;51065;48.884;12.598;2024-01-27T02:57:06;4.45;;;1.63;;
64653;SDS011;51065;48.884;12.598;2024-01-27T02:59:32;4.55;;;1.58;;
64653;SDS011;51065;48.884;12.598;2024-01-27T03:01:58;5.03;;;1.50;;
64653;SDS011;51065;48.884;12.598;2024-01-27T03:04:23;5.30;;;1.70;;
64653;SDS011;51065;48.884;12.598;2024-01-27T03:06:49;4.10;;;1.77;;
64653;SDS011;51065;48.884;12.598;2024-01-27T03:09:14;4.60;;;1.65;;
64653;SDS011;51065;48.884;12.598;2024-01-27T03:11:40;3.95;;;1.70;;
64653;SDS011;51065;48.884;12.598;2024-01-27T03:14:05;3.67;;;1.52;;
64653;SDS011;51065;48.884;12.598;2024-01-27T03:16:31;1.27;;;1.13;;
64653;SDS011;51065;48.884;12.598;2024-01-27T03:18:57;4.10;;;1.58;;
64653;SDS011;51065;48.884;12.598;2024-01-27T03:21:23;4.28;;;1.40;;
64653;SDS011;51065;48.884;12.598;2024-01-27T03:23:48;2.17;;;1.27;;
64653;SDS011;51065;48.884;12.598;2024-01-27T03:26:14;5.07;;;1.77;;
64653;SDS011;51065;48.884;12.598;2024-01-27T03:28:39;8.68;;;1.50;;
64653;SDS011;51065;48.884;12.598;2024-01-27T03:31:05;2.30;;;1.25;;
64653;SDS011;51065;48.884;12.598;2024-01-27T03:33:31;5.55;;;1.73;;
64653;SDS011;51065;48.884;12.598;2024-01-27T03:35:57;5.82;;;1.60;;
64653;SDS011;51065;48.884;12.598;2024-01-27T03:38:22;3.58;;;1.83;;
64653;SDS011;51065;48.884;12.598;2024-01-27T03:40:48;4.63;;;1.35;;
64653;SDS011;51065;48.884;12.598;2024-01-27T03:43:14;5.50;;;1.25;;
64653;SDS011;51065;48.884;12.598;2024-01-27T03:45:39;3.78;;;1.70;;
64653;SDS011;51065;48.884;12.598;2024-01-27T03:48:05;3.67;;;1.42;;
64653;SDS011;51065;48.884;12.598;2024-01-27T03:50:31;5.07;;;1.58;;
64653;SDS011;51065;48.884;12.598;2024-01-27T03:52:56;7.18;;;1.88;;
64653;SDS011;51065;48.884;12.598;2024-01-27T03:55:22;4.57;;;1.48;;
64653;SDS011;51065;48.884;12.598;2024-01-27T03:57:48;3.90;;;1.42;;
64653;SDS011;51065;48.884;12.598;2024-01-27T04:00:13;3.63;;;1.30;;
64653;SDS011;51065;48.884;12.598;2024-01-27T04:02:39;3.83;;;1.70;;
64653;SDS011;51065;48.884;12.598;2024-01-27T04:05:05;2.92;;;1.58;;
64653;SDS011;51065;48.884;12.598;2024-01-27T04:07:31;3.70;;;1.65;;
64653;SDS011;51065;48.884;12.598;2024-01-27T04:09:57;4.95;;;1.45;;
64653;SDS011;51065;48.884;12.598;2024-01-27T04:12:22;6.50;;;1.60;;
64653;SDS011;51065;48.884;12.598;2024-01-27T04:14:48;6.93;;;1.90;;
64653;SDS011;51065;48.884;12.598;2024-01-27T04:17:13;3.08;;;1.75;;
64653;SDS011;51065;48.884;12.598;2024-01-27T04:19:39;4.25;;;1.70;;
64653;SDS011;51065;48.884;12.598;2024-01-27T04:22:04;6.40;;;1.67;;
64653;SDS011;51065;48.884;12.598;2024-01-27T04:24:30;5.55;;;1.90;;
64653;SDS011;51065;48.884;12.598;2024-01-27T04:26:55;3.03;;;1.60;;
64653;SDS011;51065;48.884;12.598;2024-01-27T04:29:21;6.45;;;1.60;;
64653;SDS011;51065;48.884;12.598;2024-01-27T04:31:46;4.78;;;1.63;;
64653;SDS011;51065;48.884;12.598;2024-01-27T04:34:12;3.95;;;1.70;;
64653;SDS011;51065;48.884;12.598;2024-01-27T04:36:37;8.85;;;1.73;;
64653;SDS011;51065;48.884;12.598;2024-01-27T04:39:03;3.83;;;1.90;;
64653;SDS011;51065;48.884;12.598;2024-01-27T04:41:29;4.07;;;1.90;;
64653;SDS011;51065;48.884;12.598;2024-01-27T04:43:54;5.50;;;1.70;;
64653;SDS011;51065;48.884;12.598;2024-01-27T04:46:21;4.65;;;1.70;;
64653;SDS011;51065;48.884;12.598;2024-01-27T04:48:47;3.33;;;1.52;;
64653;SDS011;51065;48.884;12.598;2024-01-27T04:51:13;3.83;;;1.70;;
64653;SDS011;51065;48.884;12.598;2024-01-27T04:53:39;2.30;;;1.48;;
64653;SDS011;51065;48.884;12.598;2024-01-27T04:56:04;3.70;;;1.80;;
64653;SDS011;51065;48.884;12.598;2024-01-27T04:58:33;3.35;;;1.65;;
64653;SDS011;51065;48.884;12.598;2024-01-27T05:00:59;5.63;;;1.75;;
64653;SDS011;51065;48.884;12.598;2024-01-27T05:03:26;4.05;;;1.73;;
64653;SDS011;51065;48.884;12.598;2024-01-27T05:05:52;3.45;;;1.60;;
64653;SDS011;51065;48.884;12.598;2024-01-27T05:08:17;2.55;;;1.58;;
64653;SDS011;51065;48.884;12.598;2024-01-27T05:10:44;3.13;;;1.35;;
64653;SDS011;51065;48.884;12.598;2024-01-27T05:13:09;4.45;;;1.83;;
64653;SDS011;51065;48.884;12.598;2024-01-27T05:15:35;3.88;;;1.90;;
64653;SDS011;51065;48.884;12.598;2024-01-27T05:18:00;4.55;;;1.80;;
64653;SDS011;51065;48.884;12.598;2024-01-27T05:20:26;5.65;;;1.85;;
64653;SDS011;51065;48.884;12.598;2024-01-27T05:22:51;5.57;;;1.63;;
64653;SDS011;51065;48.884;12.598;2024-01-27T05:25:17;4.57;;;1.80;;
64653;SDS011;51065;48.884;12.598;2024-01-27T05:27:46;3.80;;;1.52;;
64653;SDS011;51065;48.884;12.598;2024-01-27T05:30:11;3.40;;;1.40;;
64653;SDS011;51065;48.884;12.598;2024-01-27T05:32:40;8.75;;;2.08;;
64653;SDS011;51065;48.884;12.598;2024-01-27T05:35:05;3.63;;;1.60;;
64653;SDS011;51065;48.884;12.598;2024-01-27T05:37:32;5.65;;;1.42;;
64653;SDS011;51065;48.884;12.598;2024-01-27T05:39:57;3.67;;;1.48;;
64653;SDS011;51065;48.884;12.598;2024-01-27T05:42:23;7.47;;;1.70;;
64653;SDS011;51065;48.884;12.598;2024-01-27T05:44:48;5.20;;;2.03;;
64653;SDS011;51065;48.884;12.598;2024-01-27T05:47:14;6.85;;;1.90;;
64653;SDS011;51065;48.884;12.598;2024-01-27T05:49:39;5.60;;;1.98;;
64653;SDS011;51065;48.884;12.598;2024-01-27T05:52:05;3.90;;;2.00;;
64653;SDS011;51065;48.884;12.598;2024-01-27T05:54:31;3.72;;;1.80;;
64653;SDS011;51065;48.884;12.598;2024-01-27T05:56:57;4.68;;;1.70;;
64653;SDS011;51065;48.884;12.598;2024-01-27T05:59:23;6.10;;;2.13;;
64653;SDS011;51065;48.884;12.598;2024-01-27T06:01:49;5.47;;;2.08;;
64653;SDS011;51065;48.884;12.598;2024-01-27T06:04:14;4.63;;;1.80;;
64653;SDS011;51065;48.884;12.598;2024-01-27T06:06:40;5.65;;;1.75;;
64653;SDS011;51065;48.884;12.598;2024-01-27T06:09:06;3.25;;;1.67;;
64653;SDS011;51065;48.884;12.598;2024-01-27T06:11:39;3.47;;;1.67;;
64653;SDS011;51065;48.884;12.598;2024-01-27T06:14:05;4.35;;;2.00;;
64653;SDS011;51065;48.884;12.598;2024-01-27T06:16:31;7.43;;;1.95;;
64653;SDS011;51065;48.884;12.598;2024-01-27T06:18:57;6.30;;;2.47;;
64653;SDS011;51065;48.884;12.598;2024-01-27T06:21:23;3.45;;;1.90;;
64653;SDS011;51065;48.884;12.598;2024-01-27T06:23:50;4.40;;;1.90;;
64653;SDS011;51065;48.884;12.598;2024-01-27T06:26:15;5.45;;;2.05;;
64653;SDS011;51065;48.884;12.598;2024-01-27T06:28:41;3.55;;;1.55;;
64653;SDS011;51065;48.884;12.598;2024-01-27T06:31:06;6.60;;;2.10;;
64653;SDS011;51065;48.884;12.598;2024-01-27T06:33:32;4.28;;;1.95;;
64653;SDS011;51065;48.884;12.598;2024-01-27T06:35:59;5.00;;;2.05;;
64653;SDS011;51065;48.884;12.598;2024-01-27T06:38:26;3.13;;;1.90;;
64653;SDS011;51065;48.884;12.598;2024-01-27T06:40:52;5.88;;;2.00;;
64653;SDS011;51065;48.884;12.598;2024-01-27T06:43:18;2.80;;;1.77;;
64653;SDS011;51065;48.884;12.598;2024-01-27T06:45:44;4.68;;;1.70;;
64653;SDS011;51065;48.884;12.598;2024-01-27T06:48:10;5.38;;;2.17;;
64653;SDS011;51065;48.884;12.598;2024-01-27T06:50:35;5.63;;;2.40;;
64653;SDS011;51065;48.884;12.598;2024-01-27T06:53:01;5.82;;;2.05;;
64653;SDS011;51065;48.884;12.598;2024-01-27T06:55:27;5.28;;;2.38;;
64653;SDS011;51065;48.884;12.598;2024-01-27T06:57:52;6.15;;;2.90;;
64653;SDS011;51065;48.884;12.598;2024-01-27T07:00:18;7.75;;;2.30;;
64653;SDS011;51065;48.884;12.598;2024-01-27T07:02:44;9.55;;;3.13;;
64653;SDS011;51065;48.884;12.598;2024-01-27T07:05:10;4.57;;;2.05;;
64653;SDS011;51065;48.884;12.598;2024-01-27T07:07:37;9.07;;;2.80;;
64653;SDS011;51065;48.884;12.598;2024-01-27T07:10:04;8.00;;;2.78;;
64653;SDS011;51065;48.884;12.598;2024-01-27T07:12:32;8.10;;;2.47;;
64653;SDS011;51065;48.884;12.598;2024-01-27T07:15:00;5.40;;;2.42;;
64653;SDS011;51065;48.884;12.598;2024-01-27T07:17:28;6.20;;;2.08;;
64653;SDS011;51065;48.884;12.598;2024-01-27T07:19:54;6.95;;;1.88;;
64653;SDS011;51065;48.884;12.598;2024-01-27T07:22:20;6.78;;;2.30;;
64653;SDS011;51065;48.884;12.598;2024-01-27T07:24:45;5.20;;;2.42;;
64653;SDS011;51065;48.884;12.598;2024-01-27T07:27:12;7.63;;;2.00;;
64653;SDS011;51065;48.884;12.598;2024-01-27T07:29:38;4.93;;;2.15;;
64653;SDS011;51065;48.884;12.598;2024-01-27T07:32:04;8.30;;;3.03;;
64653;SDS011;51065;48.884;12.598;2024-01-27T07:34:32;11.00;;;3.05;;
64653;SDS011;51065;48.884;12.598;2024-01-27T07:36:58;7.82;;;3.13;;
64653;SDS011;51065;48.884;12.598;2024-01-27T07:39:24;8.52;;;3.35;;
64653;SDS011;51065;48.884;12.598;2024-01-27T07:41:49;8.20;;;2.67;;
64653;SDS011;51065;48.884;12.598;2024-01-27T07:44:15;10.38;;;3.25;;
64653;SDS011;51065;48.884;12.598;2024-01-27T07:46:41;6.40;;;3.05;;
64653;SDS011;51065;48.884;12.598;2024-01-27T07:49:07;8.30;;;3.00;;
64653;SDS011;51065;48.884;12.598;2024-01-27T07:51:33;6.40;;;2.97;;
64653;SDS011;51065;48.884;12.598;2024-01-27T07:53:59;6.68;;;2.70;;
64653;SDS011;51065;48.884;12.598;2024-01-27T07:56:25;5.80;;;2.97;;
64653;SDS011;51065;48.884;12.598;2024-01-27T07:58:51;6.30;;;2.35;;
64653;SDS011;51065;48.884;12.598;2024-01-27T08:01:17;7.18;;;3.00;;
64653;SDS011;51065;48.884;12.598;2024-01-27T08:03:43;7.90;;;2.88;;
64653;SDS011;51065;48.884;12.598;2024-01-27T08:06:15;6.65;;;2.42;;
64653;SDS011;51065;48.884;12.598;2024-01-27T08:08:43;4.85;;;2.40;;
64653;SDS011;51065;48.884;12.598;2024-01-27T08:11:10;7.10;;;2.50;;
64653;SDS011;51065;48.884;12.598;2024-01-27T08:13:35;6.32;;;2.55;;
64653;SDS011;51065;48.884;12.598;2024-01-27T08:16:01;8.63;;;2.65;;
64653;SDS011;51065;48.884;12.598;2024-01-27T08:18:26;6.55;;;2.50;;
64653;SDS011;51065;48.884;12.598;2024-01-27T08:20:52;7.28;;;2.50;;
64653;SDS011;51065;48.884;12.598;2024-01-27T08:23:17;9.80;;;2.65;;
64653;SDS011;51065;48.884;12.598;2024-01-27T08:25:43;6.63;;;2.20;;
64653;SDS011;51065;48.884;12.598;2024-01-27T08:28:12;9.65;;;2.70;;
64653;SDS011;51065;48.884;12.598;2024-01-27T08:30:38;6.57;;;2.45;;
64653;SDS011;51065;48.884;12.598;2024-01-27T08:33:04;7.38;;;2.47;;
64653;SDS011;51065;48.884;12.598;2024-01-27T08:35:30;7.70;;;2.63;;
64653;SDS011;51065;48.884;12.598;2024-01-27T08:37:55;6.18;;;2.50;;
64653;SDS011;51065;48.884;12.598;2024-01-27T08:40:21;10.63;;;2.80;;
64653;SDS011;51065;48.884;12.598;2024-01-27T08:42:47;4.47;;;2.15;;
64653;SDS011;51065;48.884;12.598;2024-01-27T08:45:12;8.73;;;2.92;;
64653;SDS011;51065;48.884;12.598;2024-01-27T08:47:38;5.95;;;2.72;;
64653;SDS011;51065;48.884;12.598;2024-01-27T08:50:04;5.38;;;2.53;;
64653;SDS011;51065;48.884;12.598;2024-01-27T08:52:30;5.55;;;2.08;;
64653;SDS011;51065;48.884;12.598;2024-01-27T08:54:56;4.38;;;1.77;;
64653;SDS011;51065;48.884;12.598;2024-01-27T08:57:21;4.25;;;1.88;;
64653;SDS011;51065;48.884;12.598;2024-01-27T08:59:47;8.95;;;2.28;;
64653;SDS011;51065;48.884;12.598;2024-01-27T09:02:12;4.65;;;1.88;;
64653;SDS011;51065;48.884;12.598;2024-01-27T09:04:38;4.78;;;1.90;;
64653;SDS011;51065;48.884;12.598;2024-01-27T09:07:04;9.15;;;2.25;;
64653;SDS011;51065;48.884;12.598;2024-01-27T09:09:29;4.22;;;1.80;;
64653;SDS011;51065;48.884;12.598;2024-01-27T09:11:55;7.20;;;2.65;;
64653;SDS011;51065;48.884;12.598;2024-01-27T09:14:20;8.45;;;2.58;;
64653;SDS011;51065;48.884;12.598;2024-01-27T09:16:46;4.50;;;1.90;;
64653;SDS011;51065;48.884;12.598;2024-01-27T09:19:12;7.30;;;2.28;;
64653;SDS011;51065;48.884;12.598;2024-01-27T09:21:37;5.93;;;2.03;;
64653;SDS011;51065;48.884;12.598;2024-01-27T09:24:03;5.22;;;2.00;;
64653;SDS011;51065;48.884;12.598;2024-01-27T09:26:29;6.72;;;2.05;;
64653;SDS011;51065;48.884;12.598;2024-01-27T09:28:54;9.52;;;2.60;;
64653;SDS011;51065;48.884;12.598;2024-01-27T09:31:21;7.20;;;1.98;;
64653;SDS011;51065;48.884;12.598;2024-01-27T09:33:50;6.45;;;2.13;;
64653;SDS011;51065;48.884;12.598;2024-01-27T09:36:17;7.68;;;2.28;;
64653;SDS011;51065;48.884;12.598;2024-01-27T09:38:43;10.40;;;2.28;;
64653;SDS011;51065;48.884;12.598;2024-01-27T09:41:08;8.00;;;2.35;;
64653;SDS011;51065;48.884;12.598;2024-01-27T09:43:35;4.70;;;2.00;;
64653;SDS011;51065;48.884;12.598;2024-01-27T09:46:02;6.00;;;2.10;;
64653;SDS011;51065;48.884;12.598;2024-01-27T09:48:29;5.60;;;2.40;;
64653;SDS011;51065;48.884;12.598;2024-01-27T09:50:55;5.85;;;2.35;;
64653;SDS011;51065;48.884;12.598;2024-01-27T09:53:23;7.22;;;2.38;;
64653;SDS011;51065;48.884;12.598;2024-01-27T09:55:49;6.43;;;2.40;;
64653;SDS011;51065;48.884;12.598;2024-01-27T09:58:15;6.68;;;1.80;;
64653;SDS011;51065;48.884;12.598;2024-01-27T10:00:41;6.55;;;2.13;;
64653;SDS011;51065;48.884;12.598;2024-01-27T10:03:07;10.18;;;3.00;;
64653;SDS011;51065;48.884;12.598;2024-01-27T10:05:33;8.20;;;2.17;;
64653;SDS011;51065;48.884;12.598;2024-01-27T10:08:00;11.75;;;2.33;;
64653;SDS011;51065;48.884;12.598;2024-01-27T10:10:26;6.05;;;2.50;;
64653;SDS011;51065;48.884;12.598;2024-01-27T10:12:52;5.88;;;2.13;;
64653;SDS011;51065;48.884;12.598;2024-01-27T10:15:21;5.28;;;2.45;;
64653;SDS011;51065;48.884;12.598;2024-01-27T10:17:47;10.05;;;2.60;;
64653;SDS011;51065;48.884;12.598;2024-01-27T10:20:13;6.57;;;2.45;;
64653;SDS011;51065;48.884;12.598;2024-01-27T10:22:44;7.53;;;2.47;;
64653;SDS011;51065;48.884;12.598;2024-01-27T10:25:10;7.63;;;2.35;;
64653;SDS011;51065;48.884;12.598;2024-01-27T10:27:36;7.78;;;2.58;;
64653;SDS011;51065;48.884;12.598;2024-01-27T10:30:02;5.75;;;2.17;;
64653;SDS011;51065;48.884;12.598;2024-01-27T10:32:28;5.57;;;2.63;;
64653;SDS011;51065;48.884;12.598;2024-01-27T10:35:04;4.82;;;1.95;;
64653;SDS011;51065;48.884;12.598;2024-01-27T10:37:30;7.70;;;2.38;;
64653;SDS011;51065;48.884;12.598;2024-01-27T10:40:00;7.70;;;2.35;;
64653;SDS011;51065;48.884;12.598;2024-01-27T10:42:28;4.95;;;2.10;;
64653;SDS011;51065;48.884;12.598;2024-01-27T10:44:56;9.18;;;2.20;;
64653;SDS011;51065;48.884;12.598;2024-01-27T10:47:25;5.90;;;2.15;;
64653;SDS011;51065;48.884;12.598;2024-01-27T10:49:54;6.38;;;2.42;;
64653;SDS011;51065;48.884;12.598;2024-01-27T10:52:21;7.15;;;2.35;;
64653;SDS011;51065;48.884;12.598;2024-01-27T10:54:53;7.15;;;2.17;;
64653;SDS011;51065;48.884;12.598;2024-01-27T10:57:25;8.57;;;3.05;;
64653;SDS011;51065;48.884;12.598;2024-01-27T10:59:52;7.93;;;1.98;;
64653;SDS011;51065;48.884;12.598;2024-01-27T11:02:18;4.85;;;1.90;;
64653;SDS011;51065;48.884;12.598;2024-01-27T11:04:45;5.53;;;2.10;;
64653;SDS011;51065;48.884;12.598;2024-01-27T11:07:13;6.35;;;1.95;;
64653;SDS011;51065;48.884;12.598;2024-01-27T11:09:39;10.90;;;3.03;;
64653;SDS011;51065;48.884;12.598;2024-01-27T11:12:07;6.75;;;2.67;;
64653;SDS011;51065;48.884;12.598;2024-01-27T11:14:33;5.78;;;2.08;;
64653;SDS011;51065;48.884;12.598;2024-01-27T11:16:59;4.82;;;2.13;;
64653;SDS011;51065;48.884;12.598;2024-01-27T11:19:25;7.15;;;2.45;;
64653;SDS011;51065;48.884;12.598;2024-01-27T11:22:04;5.90;;;2.00;;
64653;SDS011;51065;48.884;12.598;2024-01-27T11:24:30;10.32;;;2.85;;
64653;SDS011;51065;48.884;12.598;2024-01-27T11:27:14;7.35;;;2.28;;
64653;SDS011;51065;48.884;12.598;2024-01-27T11:29:46;8.40;;;2.50;;
64653;SDS011;51065;48.884;12.598;2024-01-27T11:32:13;10.45;;;2.75;;
64653;SDS011;51065;48.884;12.598;2024-01-27T11:34:43;6.22;;;1.85;;
64653;SDS011;51065;48.884;12.598;2024-01-27T11:37:16;5.07;;;2.50;;
64653;SDS011;51065;48.884;12.598;2024-01-27T11:39:42;10.15;;;2.10;;
64653;SDS011;51065;48.884;12.598;2024-01-27T11:42:09;8.43;;;2.28;;
64653;SDS011;51065;48.884;12.598;2024-01-27T11:44:38;8.75;;;2.20;;
64653;SDS011;51065;48.884;12.598;2024-01-27T11:47:05;8.23;;;2.22;;
64653;SDS011;51065;48.884;12.598;2024-01-27T11:49:38;10.75;;;2.20;;
64653;SDS011;51065;48.884;12.598;2024-01-27T11:52:05;6.40;;;2.50;;
64653;SDS011;51065;48.884;12.598;2024-01-27T11:54:32;4.90;;;2.25;;
64653;SDS011;51065;48.884;12.598;2024-01-27T11:56:57;8.15;;;2.25;;
64653;SDS011;51065;48.884;12.598;2024-01-27T11:59:26;6.70;;;1.92;;
64653;SDS011;51065;48.884;12.598;2024-01-27T12:01:51;10.10;;;2.20;;
64653;SDS011;51065;48.884;12.598;2024-01-27T12:04:17;7.30;;;2.45;;
64653;SDS011;51065;48.884;12.598;2024-01-27T12:06:44;4.88;;;1.90;;
64653;SDS011;51065;48.884;12.598;2024-01-27T12:09:10;6.15;;;2.35;;
64653;SDS011;51065;48.884;12.598;2024-01-27T12:11:39;8.50;;;2.30;;
64653;SDS011;51065;48.884;12.598;2024-01-27T12:14:06;6.85;;;2.15;;
64653;SDS011;51065;48.884;12.598;2024-01-27T12:16:31;9.32;;;2.25;;
64653;SDS011;51065;48.884;12.598;2024-01-27T12:18:57;6.85;;;2.20;;
64653;SDS011;51065;48.884;12.598;2024-01-27T12:21:23;8.57;;;1.95;;
64653;SDS011;51065;48.884;12.598;2024-01-27T12:23:58;7.25;;;1.88;;
64653;SDS011;51065;48.884;12.598;2024-01-27T12:26:29;7.68;;;1.80;;
64653;SDS011;51065;48.884;12.598;2024-01-27T12:28:56;10.18;;;2.70;;
64653;SDS011;51065;48.884;12.598;2024-01-27T12:31:23;4.25;;;1.75;;
64653;SDS011;51065;48.884;12.598;2024-01-27T12:33:52;6.68;;;2.15;;
64653;SDS011;51065;48.884;12.598;2024-01-27T12:36:20;7.95;;;2.30;;
64653;SDS011;51065;48.884;12.598;2024-01-27T12:39:07;7.10;;;2.20;;
64653;SDS011;51065;48.884;12.598;2024-01-27T12:41:32;6.53;;;1.73;;
64653;SDS011;51065;48.884;12.598;2024-01-27T12:43:58;4.90;;;1.83;;
64653;SDS011;51065;48.884;12.598;2024-01-27T12:46:24;6.07;;;2.00;;
64653;SDS011;51065;48.884;12.598;2024-01-27T12:48:50;7.53;;;1.90;;
64653;SDS011;51065;48.884;12.598;2024-01-27T12:51:16;4.93;;;1.95;;
64653;SDS011;51065;48.884;12.598;2024-01-27T12:53:42;6.38;;;1.90;;
64653;SDS011;51065;48.884;12.598;2024-01-27T12:56:11;6.03;;;1.77;;
64653;SDS011;51065;48.884;12.598;2024-01-27T12:58:38;6.65;;;2.20;;
64653;SDS011;51065;48.884;12.598;2024-01-27T13:01:05;6.43;;;2.08;;
64653;SDS011;51065;48.884;12.598;2024-01-27T13:03:31;5.68;;;1.80;;
64653;SDS011;51065;48.884;12.598;2024-01-27T13:05:57;4.85;;;1.75;;
64653;SDS011;51065;48.884;12.598;2024-01-27T13:08:22;5.55;;;1.67;;
64653;SDS011;51065;48.884;12.598;2024-01-27T13:10:48;3.78;;;1.45;;
64653;SDS011;51065;48.884;12.598;2024-01-27T13:13:14;5.13;;;1.98;;
64653;SDS011;51065;48.884;12.598;2024-01-27T13:15:41;7.07;;;1.80;;
64653;SDS011;51065;48.884;12.598;2024-01-27T13:18:06;6.97;;;1.83;;
64653;SDS011;51065;48.884;12.598;2024-01-27T13:20:32;8.10;;;2.10;;
64653;SDS011;51065;48.884;12.598;2024-01-27T13:22:58;4.43;;;1.70;;
64653;SDS011;51065;48.884;12.598;2024-01-27T13:25:24;12.70;;;2.05;;
64653;SDS011;51065;48.884;12.598;2024-01-27T13:27:50;4.25;;;1.40;;
64653;SDS011;51065;48.884;12.598;2024-01-27T13:30:15;6.13;;;1.98;;
64653;SDS011;51065;48.884;12.598;2024-01-27T13:32:42;4.25;;;1.23;;
64653;SDS011;51065;48.884;12.598;2024-01-27T13:35:08;7.60;;;2.00;;
64653;SDS011;51065;48.884;12.598;2024-01-27T13:37:34;5.18;;;1.10;;
64653;SDS011;51065;48.884;12.598;2024-01-27T13:40:00;5.38;;;1.23;;
64653;SDS011;51065;48.884;12.598;2024-01-27T13:42:26;4.05;;;1.25;;
64653;SDS011;51065;48.884;12.598;2024-01-27T13:44:52;7.32;;;1.35;;
64653;SDS011;51065;48.884;12.598;2024-01-27T13:47:17;9.00;;;2.13;;
64653;SDS011;51065;48.884;12.598;2024-01-27T13:49:43;6.03;;;1.10;;
64653;SDS011;51065;48.884;12.598;2024-01-27T13:52:09;5.57;;;1.75;;
64653;SDS011;51065;48.884;12.598;2024-01-27T13:54:35;8.07;;;1.48;;
64653;SDS011;51065;48.884;12.598;2024-01-27T13:57:01;4.43;;;1.30;;
64653;SDS011;51065;48.884;12.598;2024-01-27T13:59:27;3.60;;;1.38;;
64653;SDS011;51065;48.884;12.598;2024-01-27T14:01:53;3.45;;;1.45;;
64653;SDS011;51065;48.884;12.598;2024-01-27T14:04:20;5.15;;;1.40;;
64653;SDS011;51065;48.884;12.598;2024-01-27T14:06:45;4.28;;;1.50;;
64653;SDS011;51065;48.884;12.598;2024-01-27T14:09:11;3.13;;;1.50;;
64653;SDS011;51065;48.884;12.598;2024-01-27T14:11:38;6.72;;;1.48;;
64653;SDS011;51065;48.884;12.598;2024-01-27T14:14:04;4.00;;;1.35;;
64653;SDS011;51065;48.884;12.598;2024-01-27T14:16:30;4.35;;;1.60;;
64653;SDS011;51065;48.884;12.598;2024-01-27T14:18:56;6.78;;;1.60;;
64653;SDS011;51065;48.884;12.598;2024-01-27T14:21:22;6.13;;;1.70;;
64653;SDS011;51065;48.884;12.598;2024-01-27T14:23:49;9.52;;;2.85;;
64653;SDS011;51065;48.884;12.598;2024-01-27T14:26:15;3.47;;;1.80;;
64653;SDS011;51065;48.884;12.598;2024-01-27T14:28:41;5.88;;;1.42;;